Time;durP1;ratioP1;P1;durP2;ratioP2;P2;SDS_P1;SDS_P2;PMS_P1;PMS_P2;Temp;Humidity;BMP_temperature;BMP_pressure;BME280_temperature;BME280_humidity;BME280_pressure;Samples;Min_cycle;Max_cycle;Signal;HPM_P1;HPM_P2
2022/11/11 00:00:17;;;;;;;55.23;26.05;;;;;;;4.42;83.60;101598.69;2019913;87;21033;-79
2022/11/11 00:03:36;;;;;;;50.10;24.80;;;;;;;4.41;83.51;101597.45;2016489;87;21559;-79
2022/11/11 00:06:55;;;;;;;49.48;22.85;;;;;;;4.38;83.41;101595.84;2020748;87;22056;-81
2022/11/11 00:10:15;;;;;;;48.63;23.22;;;;;;;4.36;83.30;101597.71;1998828;87;21106;-76
2022/11/11 00:13:37;;;;;;;46.13;23.80;;;;;;;4.33;83.26;101591.80;2016519;87;21179;-76
2022/11/11 00:28:00;;;;;;;46.28;23.62;;;;;;;4.30;84.03;101579.68;2018096;87;21098;-76
2022/11/11 00:31:20;;;;;;;38.30;19.98;;;;;;;4.27;84.01;101574.61;2018301;87;21085;-76
2022/11/11 00:34:39;;;;;;;32.80;18.07;;;;;;;4.21;83.76;101578.92;2019186;87;21078;-76
2022/11/11 00:38:09;;;;;;;35.95;20.43;;;;;;;4.20;83.87;101577.23;2018624;87;21786;-78
2022/11/11 00:41:28;;;;;;;35.63;20.88;;;;;;;4.20;84.06;101578.55;2017246;87;21145;-75
2022/11/11 00:44:48;;;;;;;43.70;22.70;;;;;;;4.22;84.28;101582.78;2018881;87;21091;-76
2022/11/11 00:51:46;;;;;;;31.35;18.10;;;;;;;4.30;84.69;101581.00;2018217;87;21086;-78
2022/11/11 00:55:07;;;;;;;31.05;19.00;;;;;;;4.32;84.61;101580.45;2012074;87;21153;-79
2022/11/11 00:58:27;;;;;;;31.70;19.27;;;;;;;4.27;84.70;101579.87;1990611;88;21117;-77
2022/11/11 01:01:46;;;;;;;37.20;19.52;;;;;;;4.23;84.81;101579.69;1988468;87;21110;-78
2022/11/11 01:05:07;;;;;;;31.33;17.98;;;;;;;4.20;84.84;101581.18;1983790;88;21193;-77
2022/11/11 01:08:26;;;;;;;34.88;18.15;;;;;;;4.15;84.89;101591.11;1989386;88;21108;-83
2022/11/11 01:11:45;;;;;;;29.82;17.50;;;;;;;4.14;84.74;101582.38;1988473;87;21083;-79
2022/11/11 01:15:06;;;;;;;30.23;16.60;;;;;;;4.05;84.70;101596.03;1989246;87;21113;-81
2022/11/11 01:18:27;;;;;;;29.60;17.40;;;;;;;3.99;84.90;101598.54;1986337;87;21108;-77
2022/11/11 01:21:47;;;;;;;35.83;19.37;;;;;;;3.99;85.03;101605.58;1987548;88;21725;-77
2022/11/11 01:25:06;;;;;;;31.87;18.10;;;;;;;3.95;85.00;101608.02;1989942;88;21147;-77
2022/11/11 01:28:26;;;;;;;32.15;18.37;;;;;;;3.86;84.92;101601.52;1988827;88;21102;-82
2022/11/11 01:31:45;;;;;;;30.25;17.07;;;;;;;3.76;84.75;101601.17;1990940;87;21084;-77
2022/11/11 01:35:06;;;;;;;25.25;14.23;;;;;;;3.70;84.95;101597.59;1988059;87;21133;-77
2022/11/11 01:38:26;;;;;;;22.45;13.55;;;;;;;3.66;84.82;101587.33;1986122;87;21022;-82
2022/11/11 01:41:45;;;;;;;21.57;13.38;;;;;;;3.62;84.59;101591.08;1988311;88;21138;-77
2022/11/11 01:45:44;;;;;;;27.67;14.10;;;;;;;3.59;84.51;101592.09;1988961;88;21590;-78
2022/11/11 01:49:34;;;;;;;31.68;16.82;;;;;;;3.50;84.26;101589.98;1987773;88;21042;-77
2022/11/11 01:52:53;;;;;;;38.95;19.35;;;;;;;3.44;84.24;101589.86;1988711;87;21145;-82
2022/11/11 01:56:13;;;;;;;29.48;16.42;;;;;;;3.37;84.52;101585.39;1994536;87;21713;-77
2022/11/11 01:59:36;;;;;;;22.67;14.47;;;;;;;3.38;84.93;101575.77;2008946;87;21589;-78
2022/11/11 02:03:09;;;;;;;25.88;15.53;;;;;;;3.34;84.62;101575.07;2006372;87;21040;-77
2022/11/11 02:06:30;;;;;;;26.97;17.90;;;;;;;3.30;84.73;101567.47;2006544;87;21128;-77
2022/11/11 02:09:52;;;;;;;27.13;16.90;;;;;;;3.26;84.94;101566.77;2006161;87;21440;-78
2022/11/11 02:16:53;;;;;;;34.65;18.37;;;;;;;3.33;85.62;101567.30;2005558;88;21132;-77
2022/11/11 02:20:17;;;;;;;29.82;16.87;;;;;;;3.37;85.70;101553.07;2005517;87;21978;-77
2022/11/11 02:24:02;;;;;;;31.33;17.80;;;;;;;3.40;85.52;101559.45;2007700;87;21098;-77
2022/11/11 02:27:26;;;;;;;31.00;18.32;;;;;;;3.43;85.85;101553.19;2008531;87;21045;-77
2022/11/11 02:30:45;;;;;;;27.25;17.55;;;;;;;3.45;85.94;101561.36;2006759;87;21053;-77
2022/11/11 02:34:05;;;;;;;24.70;15.70;;;;;;;3.50;86.18;101573.77;2005990;87;21134;-78
2022/11/11 02:37:26;;;;;;;28.75;16.85;;;;;;;3.51;85.79;101578.55;2007290;87;21180;-78
2022/11/11 02:44:25;;;;;;;27.62;15.93;;;;;;;3.53;86.00;101578.84;2004309;87;21156;-78
2022/11/11 02:47:45;;;;;;;22.30;12.50;;;;;;;3.56;86.06;101585.23;2006125;87;21119;-77
2022/11/11 02:51:06;;;;;;;28.23;16.40;;;;;;;3.58;86.07;101591.72;2004796;87;21080;-77
2022/11/11 02:54:25;;;;;;;25.00;14.68;;;;;;;3.59;86.02;101584.21;2005300;87;21176;-77
2022/11/11 02:57:45;;;;;;;23.10;15.45;;;;;;;3.58;85.79;101575.50;1971625;88;21054;-77
2022/11/11 03:01:04;;;;;;;33.98;19.02;;;;;;;3.54;85.60;101580.52;1989032;87;21812;-80
2022/11/11 03:04:24;;;;;;;33.73;19.60;;;;;;;3.54;85.72;101577.05;1985226;88;21046;-79
2022/11/11 03:07:43;;;;;;;34.48;19.25;;;;;;;3.56;86.18;101569.48;1987849;87;21629;-77
2022/11/11 03:11:03;;;;;;;28.32;17.52;;;;;;;3.62;86.51;101570.08;1987803;88;21788;-78
2022/11/11 03:14:23;;;;;;;30.25;17.77;;;;;;;3.58;86.27;101553.19;1988133;88;21172;-76
2022/11/11 03:17:42;;;;;;;29.45;17.45;;;;;;;3.56;86.44;101568.17;1986788;88;21200;-75
2022/11/11 03:21:04;;;;;;;44.35;22.30;;;;;;;3.60;86.43;101581.95;1987523;87;21141;-76
2022/11/11 03:25:36;;;;;;;27.13;16.90;;;;;;;3.63;86.50;101581.78;1989673;87;21863;-77
2022/11/11 03:27:46;;;;;;;23.12;14.33;;;;;;;3.63;86.09;101584.88;1986373;88;21136;-76
2022/11/11 03:31:05;;;;;;;25.23;13.68;;;;;;;3.59;85.80;101595.55;1988745;87;21698;-76
2022/11/11 03:34:25;;;;;;;23.80;14.58;;;;;;;3.56;85.78;101586.55;1988984;87;21118;-76
2022/11/11 03:41:22;;;;;;;26.90;15.13;;;;;;;3.63;86.11;101594.06;1986806;87;21062;-77
2022/11/11 03:44:42;;;;;;;28.47;15.38;;;;;;;3.63;86.26;101596.22;1987996;88;21109;-76
2022/11/11 03:48:02;;;;;;;22.62;14.78;;;;;;;3.63;86.21;101609.81;1987657;87;21180;-77
2022/11/11 03:51:21;;;;;;;23.42;14.45;;;;;;;3.64;86.44;101618.09;1990680;87;21358;-76
2022/11/11 03:54:41;;;;;;;24.92;16.37;;;;;;;3.69;86.46;101620.84;1988960;87;21141;-77
2022/11/11 03:58:01;;;;;;;27.82;15.85;;;;;;;3.72;86.49;101615.89;1985724;88;21598;-77
2022/11/11 04:12:15;;;;;;;29.52;16.60;;;;;;;3.80;86.74;101616.27;1980815;88;21133;-77
2022/11/11 04:22:52;;;;;;;23.50;14.05;;;;;;;3.94;86.94;101618.12;1981108;88;21105;-77
2022/11/11 04:26:11;;;;;;;23.47;14.03;;;;;;;3.96;86.89;101628.08;1983927;88;21101;-77
2022/11/11 04:29:31;;;;;;;25.57;15.40;;;;;;;3.94;86.77;101626.87;1983531;88;21235;-78
2022/11/11 04:32:50;;;;;;;25.57;15.58;;;;;;;3.96;86.91;101623.67;1986336;88;21089;-77
2022/11/11 04:36:10;;;;;;;22.73;15.23;;;;;;;3.99;87.05;101630.06;1981995;88;21141;-77
2022/11/11 04:43:07;;;;;;;22.70;14.58;;;;;;;4.02;86.91;101630.35;1984001;88;21108;-77
2022/11/11 04:46:27;;;;;;;23.45;13.22;;;;;;;4.05;87.08;101631.48;1983003;88;21113;-77
2022/11/11 04:49:46;;;;;;;25.95;14.45;;;;;;;4.07;87.05;101634.05;1980495;88;21136;-76
2022/11/11 04:53:10;;;;;;;25.43;15.03;;;;;;;4.04;86.84;101631.13;1979644;88;21104;-77
2022/11/11 04:56:48;;;;;;;23.73;15.98;;;;;;;4.03;86.98;101632.06;1980431;88;21102;-76
2022/11/11 05:00:12;;;;;;;22.93;14.18;;;;;;;4.07;87.14;101637.52;1985141;88;21150;-77
2022/11/11 05:03:31;;;;;;;26.30;15.90;;;;;;;4.11;87.18;101633.80;1985931;88;21568;-77
2022/11/11 05:10:29;;;;;;;29.23;17.55;;;;;;;4.16;87.18;101628.25;1985982;88;21692;-79
2022/11/11 05:21:20;;;;;;;36.68;22.02;;;;;;;4.29;88.13;101620.05;1986940;88;21171;-77
2022/11/11 05:28:18;;;;;;;30.90;19.52;;;;;;;4.34;88.38;101607.48;1986081;88;21124;-76
2022/11/11 05:31:38;;;;;;;32.03;20.17;;;;;;;4.39;88.45;101617.27;1988778;88;21129;-76
2022/11/11 05:34:58;;;;;;;35.15;19.77;;;;;;;4.40;88.36;101617.63;1983326;88;21093;-77
2022/11/11 05:38:20;;;;;;;35.00;20.68;;;;;;;4.42;88.31;101615.77;1985577;88;21136;-76
2022/11/11 05:41:40;;;;;;;33.58;19.75;;;;;;;4.43;88.22;101624.02;1985484;88;21039;-76
2022/11/11 05:45:00;;;;;;;35.20;20.95;;;;;;;4.44;88.17;101620.45;1984300;88;21093;-76
2022/11/11 05:48:19;;;;;;;43.85;27.58;;;;;;;4.46;88.19;101625.16;1987852;88;21032;-77
2022/11/11 05:51:39;;;;;;;66.30;34.18;;;;;;;4.51;88.37;101622.73;1987771;88;21585;-76
2022/11/11 05:54:58;;;;;;;59.03;30.77;;;;;;;4.54;88.58;101620.77;1987149;88;21141;-81
2022/11/11 05:58:19;;;;;;;48.83;25.80;;;;;;;4.58;88.73;101624.89;2010241;87;21165;-76
2022/11/11 06:01:39;;;;;;;52.80;27.60;;;;;;;4.62;88.75;101633.47;2017017;87;21144;-76
2022/11/11 06:04:58;;;;;;;37.55;23.92;;;;;;;4.65;88.76;101634.59;2015569;87;21107;-78
2022/11/11 06:08:18;;;;;;;36.50;22.80;;;;;;;4.69;88.84;101636.09;2016774;87;21088;-77
2022/11/11 06:11:37;;;;;;;31.57;20.37;;;;;;;4.71;88.88;101640.80;2016259;87;21077;-76
2022/11/11 06:14:57;;;;;;;33.53;19.20;;;;;;;4.75;88.84;101655.91;2016661;87;21633;-77
2022/11/11 06:18:16;;;;;;;35.38;21.97;;;;;;;4.75;88.65;101662.02;2016470;87;21045;-77
2022/11/11 06:28:56;;;;;;;28.73;21.00;;;;;;;4.91;88.43;101656.69;2016157;87;21777;-75
2022/11/11 06:32:16;;;;;;;36.60;22.00;;;;;;;4.93;88.55;101660.92;2014922;87;21069;-80
2022/11/11 06:35:38;;;;;;;38.75;22.65;;;;;;;4.98;88.76;101657.16;2014536;87;21033;-78
2022/11/11 06:38:57;;;;;;;34.15;22.58;;;;;;;5.02;88.88;101658.20;2016740;87;21136;-81
2022/11/11 06:42:17;;;;;;;40.95;23.42;;;;;;;5.08;88.94;101663.56;1993513;87;21097;-78
2022/11/11 06:45:37;;;;;;;36.10;23.73;;;;;;;5.12;89.01;101659.78;2016208;87;21634;-76
2022/11/11 06:48:57;;;;;;;46.30;25.95;;;;;;;5.16;89.13;101654.25;2016894;87;21570;-76
2022/11/11 06:52:17;;;;;;;44.08;27.67;;;;;;;5.23;89.21;101654.71;2016902;87;21184;-76
2022/11/11 06:55:38;;;;;;;44.48;28.45;;;;;;;5.29;89.24;101660.91;1994974;87;21155;-76
2022/11/11 06:58:57;;;;;;;49.40;29.27;;;;;;;5.36;89.37;101649.55;2016072;87;21592;-75
2022/11/11 07:02:17;;;;;;;50.15;30.05;;;;;;;5.46;89.53;101652.44;2017090;87;21195;-76
2022/11/11 07:05:37;;;;;;;45.40;28.73;;;;;;;5.58;89.73;101653.00;2016899;87;21028;-77
2022/11/11 07:08:57;;;;;;;46.73;30.17;;;;;;;5.67;89.82;101648.45;2016432;87;21146;-76
2022/11/11 07:12:17;;;;;;;47.78;29.00;;;;;;;5.75;89.82;101647.50;2016409;87;21075;-76
2022/11/11 07:15:37;;;;;;;42.15;27.00;;;;;;;5.85;89.87;101646.42;2016044;87;21081;-81
2022/11/11 07:18:58;;;;;;;46.40;27.20;;;;;;;5.96;89.93;101640.50;2016570;87;21108;-77
2022/11/11 07:22:18;;;;;;;46.05;27.30;;;;;;;6.06;89.95;101641.12;2015757;87;21657;-76
2022/11/11 07:25:39;;;;;;;51.92;28.38;;;;;;;6.14;89.93;101645.89;2014359;87;21554;-73
2022/11/11 07:28:59;;;;;;;51.50;29.35;;;;;;;6.25;89.98;101643.84;2016327;87;21186;-79
2022/11/11 07:32:18;;;;;;;43.28;27.70;;;;;;;6.34;89.98;101645.89;2015779;87;21099;-77
2022/11/11 07:35:38;;;;;;;45.10;26.60;;;;;;;6.44;89.97;101648.75;2016102;87;21097;-72
2022/11/11 07:38:58;;;;;;;42.45;25.70;;;;;;;6.55;90.02;101643.59;2016420;87;21111;-76
2022/11/11 07:42:17;;;;;;;40.60;25.52;;;;;;;6.70;90.15;101646.53;2016696;87;21096;-80
2022/11/11 07:45:37;;;;;;;41.25;25.20;;;;;;;6.90;90.13;101643.01;2018331;87;21631;-77
2022/11/11 07:48:56;;;;;;;38.63;24.90;;;;;;;7.04;90.05;101640.25;2017924;87;21149;-78
2022/11/11 07:52:16;;;;;;;35.60;22.07;;;;;;;7.21;89.95;101635.56;2020321;87;21097;-79
2022/11/11 07:55:35;;;;;;;39.75;23.07;;;;;;;7.37;89.71;101637.50;2017362;87;21254;-77
2022/11/11 07:58:55;;;;;;;32.60;22.15;;;;;;;7.57;89.68;101646.19;1994133;87;21156;-77
2022/11/11 08:02:15;;;;;;;34.73;20.97;;;;;;;7.78;89.63;101646.91;1983357;88;21066;-76
2022/11/11 08:05:35;;;;;;;35.80;21.37;;;;;;;7.98;89.22;101639.67;1981458;88;21118;-75
2022/11/11 08:08:55;;;;;;;30.88;20.80;;;;;;;8.09;88.72;101646.34;1983680;88;21113;-78
2022/11/11 08:15:55;;;;;;;33.78;18.35;;;;;;;8.21;88.19;101648.55;1980420;88;21124;-78
2022/11/11 08:19:14;;;;;;;26.37;17.98;;;;;;;8.29;87.97;101659.40;1983306;88;21605;-81
2022/11/11 08:22:39;;;;;;;29.50;18.25;;;;;;;8.34;87.89;101657.74;1981881;88;21419;-80
2022/11/11 08:26:05;;;;;;;26.23;17.37;;;;;;;8.41;87.81;101660.31;1984406;88;21153;-82
2022/11/11 08:29:25;;;;;;;31.02;17.32;;;;;;;8.52;87.76;101662.16;1985177;88;22237;-79
2022/11/11 08:32:44;;;;;;;24.25;16.25;;;;;;;8.59;87.63;101665.16;1981646;88;21116;-77
2022/11/11 08:36:06;;;;;;;27.15;15.98;;;;;;;8.67;87.69;101662.33;1986038;88;21109;-75
2022/11/11 08:39:25;;;;;;;30.92;16.15;;;;;;;8.83;88.40;101672.57;1983053;88;21097;-76
2022/11/11 08:42:45;;;;;;;22.98;15.80;;;;;;;9.20;89.12;101678.50;1981038;88;21121;-78
2022/11/11 08:46:05;;;;;;;25.33;14.40;;;;;;;9.36;87.45;101682.62;1983324;88;21086;-82
2022/11/11 08:49:25;;;;;;;22.73;12.82;;;;;;;9.38;86.62;101686.83;1987095;88;21152;-78
2022/11/11 08:52:48;;;;;;;20.82;12.82;;;;;;;9.41;86.53;101690.56;1985139;88;21615;-79
2022/11/11 08:56:08;;;;;;;21.12;13.03;;;;;;;9.49;86.21;101689.97;1980987;88;21200;-79
2022/11/11 08:59:27;;;;;;;25.57;13.28;;;;;;;9.54;85.68;101651.16;1984869;88;21627;-80
2022/11/11 09:02:47;;;;;;;22.20;13.25;;;;;;;9.69;85.77;101677.77;1989474;87;21202;-77
2022/11/11 09:06:06;;;;;;;24.02;14.45;;;;;;;9.69;85.77;101677.77;1989713;87;21159;-78
2022/11/11 09:09:26;;;;;;;17.85;11.57;;;;;;;9.75;85.59;101683.91;1987154;87;21035;-76
2022/11/11 09:12:45;;;;;;;20.30;12.30;;;;;;;9.79;85.32;101699.91;1989932;87;21227;-76
2022/11/11 09:16:06;;;;;;;20.12;11.53;;;;;;;9.82;85.23;101690.87;1988182;87;21121;-76
2022/11/11 09:19:26;;;;;;;21.00;12.33;;;;;;;9.86;85.27;101678.58;1990022;87;21080;-78
2022/11/11 09:22:51;;;;;;;22.65;12.10;;;;;;;9.97;84.79;101672.41;1986983;87;21073;-79
2022/11/11 09:26:11;;;;;;;19.20;11.45;;;;;;;9.97;84.79;101672.41;1986840;87;21138;-77
2022/11/11 09:29:31;;;;;;;20.50;10.60;;;;;;;10.01;84.71;101680.95;1990627;88;21523;-83
2022/11/11 09:32:51;;;;;;;17.85;10.10;;;;;;;10.07;84.52;101688.41;1989694;87;21153;-81
2022/11/11 09:36:10;;;;;;;19.07;11.87;;;;;;;10.15;84.40;101691.77;1989351;87;21124;-76
2022/11/11 09:39:30;;;;;;;20.55;11.15;;;;;;;10.19;84.12;101688.75;1988078;87;21159;-77
2022/11/11 09:43:20;;;;;;;19.85;10.38;;;;;;;10.27;84.06;101685.47;1986919;87;21185;-77
2022/11/11 09:46:57;;;;;;;17.48;10.68;;;;;;;10.36;83.81;101687.84;1990149;87;21106;-77
2022/11/11 09:50:26;;;;;;;18.32;10.08;;;;;;;10.48;83.81;101697.46;1987632;87;21623;-85
2022/11/11 09:54:00;;;;;;;17.45;9.95;;;;;;;10.58;83.45;101693.54;1988298;87;21121;-78
2022/11/11 09:57:37;;;;;;;21.65;10.20;;;;;;;10.64;83.15;101691.69;1988827;87;21542;-77
2022/11/11 10:01:11;;;;;;;20.50;10.18;;;;;;;10.77;83.14;101689.20;1989107;87;21046;-77
2022/11/11 10:04:42;;;;;;;16.05;9.25;;;;;;;10.92;82.79;101678.25;1987748;87;21160;-79
2022/11/11 10:08:20;;;;;;;12.33;8.25;;;;;;;11.02;82.33;101669.86;1970050;87;21157;-77
2022/11/11 10:11:54;;;;;;;12.05;7.03;;;;;;;11.14;82.20;101672.78;1985980;87;21114;-79
2022/11/11 10:15:18;;;;;;;11.97;7.53;;;;;;;11.27;81.52;101677.05;1985876;88;21103;-81
2022/11/11 10:19:28;;;;;;;15.23;7.92;;;;;;;11.44;81.35;101680.40;1987492;87;21089;-78
2022/11/11 10:22:59;;;;;;;17.62;7.85;;;;;;;11.58;80.64;101673.87;1916316;87;21180;-78
2022/11/11 10:26:22;;;;;;;16.12;6.92;;;;;;;11.78;80.53;101679.59;1979911;87;21076;-77
2022/11/11 10:29:43;;;;;;;10.43;6.20;;;;;;;11.93;80.01;101669.91;1989967;87;21051;-76
2022/11/11 10:33:16;;;;;;;15.85;6.87;;;;;;;12.05;79.21;101667.00;1989215;87;21664;-77
2022/11/11 10:36:50;;;;;;;12.93;6.72;;;;;;;12.11;79.09;101666.44;1990204;87;21177;-77
2022/11/11 10:40:21;;;;;;;10.65;6.00;;;;;;;12.17;78.56;101662.88;1988639;88;21124;-77
2022/11/11 10:43:48;;;;;;;13.43;6.25;;;;;;;12.23;78.37;101661.83;1986953;87;21564;-81
2022/11/11 10:47:38;;;;;;;10.80;6.00;;;;;;;12.26;77.42;101648.73;1992330;87;21086;-77
2022/11/11 10:51:01;;;;;;;11.25;6.05;;;;;;;12.25;75.66;101657.70;1989475;87;21734;-78
2022/11/11 10:54:42;;;;;;;10.75;5.87;;;;;;;12.17;76.07;101663.72;1988356;87;21582;-77
2022/11/11 10:58:31;;;;;;;13.28;6.15;;;;;;;12.15;76.13;101663.50;1991671;87;22492;-79
2022/11/11 11:02:08;;;;;;;10.32;5.90;;;;;;;12.11;75.78;101654.97;2016985;87;21502;-78
2022/11/11 11:06:09;;;;;;;11.75;5.72;;;;;;;12.07;75.21;101657.05;2016634;87;21613;-79
2022/11/11 11:09:53;;;;;;;9.40;5.62;;;;;;;12.04;75.32;101652.00;2016113;87;21029;-78
2022/11/11 11:13:21;;;;;;;9.75;5.37;;;;;;;12.06;74.88;101648.72;1980686;87;21556;-79
2022/11/11 11:16:47;;;;;;;10.03;5.45;;;;;;;12.08;74.92;101650.77;2018468;87;21050;-77
2022/11/11 11:20:15;;;;;;;12.82;5.70;;;;;;;12.09;74.26;101649.77;2016654;87;21141;-76
2022/11/11 11:23:43;;;;;;;11.60;5.25;;;;;;;12.08;74.31;101645.44;2017932;87;21127;-76
2022/11/11 11:27:06;;;;;;;8.05;5.00;;;;;;;12.10;74.10;101647.45;2016880;87;21184;-78
2022/11/11 11:30:26;;;;;;;12.70;5.50;;;;;;;12.09;73.05;101641.79;1993555;87;21674;-76
2022/11/11 11:33:55;;;;;;;8.30;5.03;;;;;;;12.10;73.24;101635.48;2016869;87;21117;-75
2022/11/11 11:37:16;;;;;;;8.58;5.75;;;;;;;12.11;73.42;101638.51;2016983;87;21445;-76
2022/11/11 11:40:57;;;;;;;11.50;5.08;;;;;;;12.11;72.85;101639.84;2015165;87;21086;-77
2022/11/11 11:44:31;;;;;;;16.48;5.40;;;;;;;12.16;73.47;101635.91;2017699;87;21182;-78
2022/11/11 11:48:07;;;;;;;8.75;4.62;;;;;;;12.24;73.17;101637.37;2017668;87;21056;-77
2022/11/11 11:51:51;;;;;;;7.35;4.50;;;;;;;12.27;72.13;101625.12;2017370;87;21089;-77
2022/11/11 11:55:36;;;;;;;11.22;5.12;;;;;;;12.29;72.62;101636.47;1995524;87;21565;-76
2022/11/11 11:59:07;;;;;;;8.28;4.62;;;;;;;12.33;70.61;101624.55;2018658;87;21635;-78
2022/11/11 12:03:09;;;;;;;6.45;4.22;;;;;;;12.40;71.40;101623.02;2017438;87;21679;-76
2022/11/11 12:06:38;;;;;;;9.40;4.12;;;;;;;12.47;70.68;101626.80;2017015;87;21069;-76
2022/11/11 12:10:45;;;;;;;10.65;4.67;;;;;;;12.59;70.29;101630.64;2015873;87;21053;-76
2022/11/11 12:14:35;;;;;;;6.60;4.47;;;;;;;12.70;70.45;101629.14;1943921;90;21138;-78
2022/11/11 12:18:18;;;;;;;9.25;5.15;;;;;;;12.83;69.02;101621.65;1948456;89;21157;-76
2022/11/11 12:21:58;;;;;;;7.42;4.67;;;;;;;12.94;69.08;101620.14;1974360;87;21120;-75
2022/11/11 12:25:51;;;;;;;9.73;7.45;;;;;;;13.11;69.23;101621.70;2016951;87;21201;-75
2022/11/11 12:29:22;;;;;;;10.45;4.78;;;;;;;13.11;69.23;101621.70;2017278;87;21707;-75
2022/11/11 12:33:04;;;;;;;8.65;4.40;;;;;;;13.11;67.68;101613.70;2014452;87;21084;-76
2022/11/11 12:36:52;;;;;;;6.28;4.15;;;;;;;13.07;68.00;101606.51;2017429;87;21187;-76
2022/11/11 12:40:43;;;;;;;9.08;5.10;;;;;;;12.98;67.25;101594.91;2018041;87;21053;-77
2022/11/11 12:44:12;;;;;;;11.03;4.53;;;;;;;12.94;67.48;101594.83;2016665;87;21537;-75
2022/11/11 12:47:44;;;;;;;9.03;5.10;;;;;;;12.91;67.63;101602.28;2015179;87;21089;-78
2022/11/11 12:51:32;;;;;;;8.10;4.60;;;;;;;12.93;67.68;101604.32;2019630;87;22308;-75
2022/11/11 12:55:15;;;;;;;9.95;3.98;;;;;;;12.89;67.35;101606.41;2016389;87;21033;-74
2022/11/11 12:58:59;;;;;;;8.98;4.53;;;;;;;12.97;66.14;101613.19;2017046;87;21108;-76
2022/11/11 13:02:56;;;;;;;7.92;4.25;;;;;;;13.02;66.67;101616.76;2019638;87;21115;-78
2022/11/11 13:06:38;;;;;;;13.68;5.47;;;;;;;12.86;66.75;101606.70;2013515;87;21116;-77
2022/11/11 13:10:40;;;;;;;8.58;4.70;;;;;;;12.71;66.36;101600.18;2014598;87;21582;-79
2022/11/11 13:14:21;;;;;;;9.00;4.80;;;;;;;12.61;66.80;101591.36;2015210;87;21250;-75
2022/11/11 13:17:41;;;;;;;10.00;5.08;;;;;;;12.48;66.97;101594.36;2017409;87;21096;-75
2022/11/11 13:21:06;;;;;;;8.28;4.53;;;;;;;12.42;66.50;101593.11;2015790;87;21080;-77
2022/11/11 13:24:27;;;;;;;11.33;6.00;;;;;;;12.36;66.67;101594.14;2015387;87;21087;-78
2022/11/11 13:28:05;;;;;;;;;;;;;;;12.31;66.89;101586.61;2018246;87;21195;-78
2022/11/11 13:31:35;;;;;;;13.05;6.08;;;;;;;12.27;66.71;101588.69;2017010;87;20148;-79
2022/11/11 13:34:55;;;;;;;11.67;5.77;;;;;;;12.21;66.41;101590.59;2017080;87;21219;-77
2022/11/11 13:38:50;;;;;;;8.03;5.58;;;;;;;12.18;66.77;101596.70;2017874;87;21285;-78
2022/11/11 13:42:15;;;;;;;9.20;5.62;;;;;;;12.13;67.03;101593.61;1999405;87;21025;-77
2022/11/11 13:45:41;;;;;;;8.05;5.03;;;;;;;12.08;66.56;101602.03;2016925;87;21118;-73
2022/11/11 13:49:05;;;;;;;7.15;4.60;;;;;;;12.04;67.29;101609.44;2017629;87;21552;-76
2022/11/11 13:52:39;;;;;;;9.03;5.42;;;;;;;12.00;67.25;101598.73;2018284;87;21110;-77
2022/11/11 13:56:03;;;;;;;11.03;5.95;;;;;;;11.96;67.31;101606.63;2018942;87;21561;-80
2022/11/11 13:59:34;;;;;;;10.50;5.17;;;;;;;11.93;67.54;101607.41;2011085;87;21102;-77
2022/11/11 14:03:21;;;;;;;12.18;5.92;;;;;;;11.88;67.42;101604.69;1984353;87;21085;-84
2022/11/11 14:06:52;;;;;;;13.22;6.60;;;;;;;11.84;67.58;101599.74;1988695;88;21141;-76
2022/11/11 14:10:21;;;;;;;17.12;8.10;;;;;;;11.76;67.46;101607.08;1989624;87;21055;-76
2022/11/11 14:13:41;;;;;;;21.20;9.63;;;;;;;11.71;67.66;101611.96;1987358;87;21067;-78
2022/11/11 14:17:12;;;;;;;14.90;8.15;;;;;;;11.67;67.84;101605.25;1991041;87;21759;-74
2022/11/11 14:20:36;;;;;;;9.38;6.20;;;;;;;11.66;67.87;101615.55;1988538;87;21097;-75
2022/11/11 14:23:56;;;;;;;11.33;6.58;;;;;;;11.63;67.96;101610.02;1989925;87;21055;-73
2022/11/11 14:27:21;;;;;;;12.33;6.75;;;;;;;11.60;68.04;101611.62;1992943;87;21534;-75
2022/11/11 14:30:41;;;;;;;10.03;7.42;;;;;;;11.52;68.08;101607.47;1989751;87;21565;-75
2022/11/11 14:34:39;;;;;;;16.80;7.47;;;;;;;11.47;68.18;101607.53;1989098;87;21200;-80
2022/11/11 14:38:20;;;;;;;18.42;9.18;;;;;;;11.42;68.33;101610.58;1992173;87;21105;-80
2022/11/11 14:41:49;;;;;;;17.05;9.43;;;;;;;11.32;68.57;101615.88;1993716;87;21047;-88
2022/11/11 14:45:34;;;;;;;16.32;9.15;;;;;;;11.22;68.80;101623.80;1991086;87;21077;-89
2022/11/11 14:49:00;;;;;;;17.02;8.58;;;;;;;11.12;68.97;101620.75;1987516;88;21553;-87
2022/11/11 14:52:42;;;;;;;13.00;8.08;;;;;;;10.99;69.18;101628.96;1989610;87;21039;-86
2022/11/11 14:56:04;;;;;;;14.53;9.18;;;;;;;10.87;69.34;101617.59;1990766;87;21696;-85
2022/11/11 14:59:27;;;;;;;15.18;10.30;;;;;;;10.75;69.64;101623.93;1990029;87;21085;-85
2022/11/11 15:02:58;;;;;;;20.17;9.20;;;;;;;10.64;69.88;101620.02;1993816;88;21294;-85
2022/11/11 15:06:26;;;;;;;19.20;10.08;;;;;;;10.53;70.02;101620.92;1991862;88;21638;-85
2022/11/11 15:10:09;;;;;;;20.60;11.38;;;;;;;10.41;70.26;101618.83;1982073;88;21092;-85
2022/11/11 15:14:02;;;;;;;18.77;10.98;;;;;;;10.26;70.57;101618.28;1991123;88;21171;-84
2022/11/11 15:17:53;;;;;;;18.45;10.60;;;;;;;10.19;70.88;101618.45;1929306;88;21128;-85
2022/11/11 15:21:21;;;;;;;22.90;10.65;;;;;;;10.12;71.08;101615.09;1993595;88;21021;-78
2022/11/11 15:24:50;;;;;;;17.40;11.57;;;;;;;10.03;71.31;101619.36;1989285;88;21191;-83
2022/11/11 15:28:43;;;;;;;23.95;12.65;;;;;;;9.94;71.44;101626.27;1987628;88;21591;-82
2022/11/11 15:32:14;;;;;;;21.85;12.75;;;;;;;9.84;71.68;101623.50;1994892;88;21549;-82
2022/11/11 15:35:45;;;;;;;26.70;14.60;;;;;;;9.70;71.93;101618.48;1983356;88;21156;-84
2022/11/11 15:39:14;;;;;;;25.77;15.13;;;;;;;9.64;72.26;101620.31;1988587;88;21190;-84
2022/11/11 15:42:44;;;;;;;25.08;13.20;;;;;;;9.57;72.49;101611.16;1988569;88;21131;-84
2022/11/11 15:46:05;;;;;;;26.68;15.68;;;;;;;9.52;72.72;101618.66;1988198;88;21631;-84
2022/11/11 15:49:52;;;;;;;28.60;16.00;;;;;;;9.46;72.93;101620.45;1990755;88;21096;-85
2022/11/11 15:53:14;;;;;;;27.65;16.05;;;;;;;9.38;73.14;101624.58;1991951;88;21065;-86
2022/11/11 15:56:52;;;;;;;32.70;17.37;;;;;;;9.35;73.43;101631.45;1988445;88;21170;-84
2022/11/11 16:00:34;;;;;;;32.15;17.23;;;;;;;9.31;73.56;101625.17;1991032;87;21156;-84
2022/11/11 16:04:00;;;;;;;30.92;16.87;;;;;;;9.17;73.87;101635.05;1975821;88;21173;-83
2022/11/11 16:07:24;;;;;;;35.13;17.52;;;;;;;9.17;73.87;101635.05;1968796;87;21173;-84
2022/11/11 16:10:43;;;;;;;33.18;17.90;;;;;;;9.05;74.18;101638.66;1988101;87;21121;-83
2022/11/11 16:14:05;;;;;;;31.23;18.27;;;;;;;9.05;74.18;101638.66;1988538;87;21181;-84
2022/11/11 16:17:29;;;;;;;31.48;17.82;;;;;;;8.92;74.46;101625.53;1993044;87;21088;-85
2022/11/11 16:21:14;;;;;;;33.60;19.35;;;;;;;9.00;74.59;101645.28;1989247;88;21110;-85
2022/11/11 16:24:38;;;;;;;35.00;20.40;;;;;;;8.96;75.05;101646.02;1986300;87;21735;-85
2022/11/11 16:27:59;;;;;;;40.08;22.35;;;;;;;8.96;75.05;101646.02;1989742;87;21181;-85
2022/11/11 16:31:38;;;;;;;43.68;21.85;;;;;;;8.94;75.04;101651.41;1988307;88;21094;-84
2022/11/11 16:35:01;;;;;;;45.35;26.40;;;;;;;8.92;75.07;101649.84;1996070;87;21085;-84
2022/11/11 16:38:32;;;;;;;37.73;20.85;;;;;;;8.87;75.12;101651.99;1994850;87;21055;-84
2022/11/11 16:41:55;;;;;;;38.40;21.15;;;;;;;8.80;75.23;101648.15;1996162;87;21058;-83
2022/11/11 16:45:32;;;;;;;37.15;20.12;;;;;;;8.73;75.41;101656.56;1993368;87;21102;-85
2022/11/11 16:48:51;;;;;;;37.78;20.82;;;;;;;8.65;75.26;101651.02;1979117;87;21438;-83
2022/11/11 16:52:22;;;;;;;40.75;21.37;;;;;;;8.57;75.43;101649.42;1990791;87;21147;-85
2022/11/11 16:55:46;;;;;;;42.43;23.73;;;;;;;8.50;75.53;101646.41;1997147;87;21598;-84
2022/11/11 16:59:14;;;;;;;49.10;26.20;;;;;;;8.48;75.74;101647.48;1998113;87;21162;-83
2022/11/11 17:02:35;;;;;;;46.65;25.62;;;;;;;8.41;75.87;101641.80;2013024;87;21528;-84